createdAt,value
2023-09-28T00:00:52.761Z,59.08
2023-09-28T00:02:55.223Z,58.77
2023-09-28T00:04:57.094Z,59.28
2023-09-28T00:06:58.800Z,59.32
2023-09-28T00:09:00.479Z,59.29
2023-09-28T00:11:02.620Z,59.79
2023-09-28T00:13:04.600Z,59.76
2023-09-28T00:15:08.351Z,59.78
2023-09-28T00:17:11.534Z,60.05
2023-09-28T00:19:13.244Z,59.84
2023-09-28T00:21:14.894Z,60.41
2023-09-28T00:23:16.664Z,60.46
2023-09-28T00:25:18.931Z,59.91
2023-09-28T00:27:20.670Z,60.32
2023-09-28T00:29:22.324Z,60.50
2023-09-28T00:31:23.986Z,60.63
2023-09-28T00:33:27.142Z,61.04
2023-09-28T00:35:28.838Z,60.89
2023-09-28T00:37:30.522Z,61.11
2023-09-28T00:39:32.191Z,61.38
2023-09-28T00:41:33.890Z,61.29
2023-09-28T00:43:35.499Z,61.49
2023-09-28T00:45:38.444Z,61.69
2023-09-28T00:47:40.833Z,61.66
2023-09-28T01:01:30.951Z,60.84
2023-09-28T01:03:32.793Z,60.84
2023-09-28T01:05:34.850Z,60.83
2023-09-28T01:07:36.602Z,61.18
2023-09-28T01:09:38.269Z,61.26
2023-09-28T01:11:40.061Z,61.63
2023-09-28T01:13:41.662Z,61.55
2023-09-28T01:15:44.282Z,62.13
2023-09-28T01:17:47.421Z,62.30
2023-09-28T01:19:49.529Z,62.28
2023-09-28T01:21:51.215Z,62.94
2023-09-28T01:23:54.324Z,62.89
2023-09-28T01:25:58.518Z,62.59
2023-09-28T01:28:00.276Z,62.15
2023-09-28T01:30:04.218Z,62.45
2023-09-28T01:32:05.917Z,62.43
2023-09-28T01:34:07.646Z,62.13
2023-09-28T01:36:09.389Z,62.00
2023-09-28T01:38:19.170Z,62.31
2023-09-28T01:40:22.339Z,61.88
2023-09-28T01:42:23.979Z,62.17
2023-09-28T01:44:25.587Z,62.12
2023-09-28T01:46:27.318Z,62.09
2023-09-28T01:48:29.043Z,62.22
2023-09-28T01:50:31.000Z,62.22
2023-09-28T01:52:32.664Z,62.55
2023-09-28T01:54:34.337Z,62.52
2023-09-28T01:56:37.727Z,62.00
2023-09-28T01:58:40.631Z,63.31
2023-09-28T02:00:42.290Z,62.87
2023-09-28T02:02:44.609Z,63.15
2023-09-28T02:04:46.533Z,62.09
2023-09-28T02:06:48.221Z,62.43
2023-09-28T02:08:50.066Z,62.62
2023-09-28T02:10:51.715Z,62.43
2023-09-28T02:12:55.094Z,62.96
2023-09-28T02:14:56.727Z,63.00
2023-09-28T02:16:58.726Z,63.12
2023-09-28T02:19:00.418Z,63.26
2023-09-28T02:21:02.122Z,62.97
2023-09-28T02:23:04.152Z,64.03
2023-09-28T02:25:06.264Z,63.75
2023-09-28T02:27:07.991Z,63.52
2023-09-28T02:29:11.130Z,63.61
2023-09-28T02:31:12.938Z,63.85
2023-09-28T02:33:14.700Z,64.17
2023-09-28T02:35:18.146Z,64.44
2023-09-28T02:37:20.066Z,65.30
2023-09-28T02:39:21.737Z,65.79
2023-09-28T02:41:23.274Z,66.49
2023-09-28T02:43:25.004Z,66.58
2023-09-28T02:45:28.295Z,67.16
2023-09-28T02:47:30.393Z,67.31
2023-09-28T02:49:32.580Z,67.48
2023-09-28T02:51:34.339Z,66.79
2023-09-28T02:53:35.956Z,66.72
2023-09-28T02:55:37.727Z,66.56
2023-09-28T02:57:39.665Z,66.43
2023-09-28T02:59:41.459Z,66.73
2023-09-28T03:01:44.620Z,66.89
2023-09-28T03:03:46.373Z,66.98
2023-09-28T03:05:48.155Z,66.67
2023-09-28T03:07:50.649Z,67.18
2023-09-28T03:09:52.477Z,67.01
2023-09-28T03:11:54.096Z,67.29
2023-09-28T03:13:55.982Z,67.38
2023-09-28T03:15:58.020Z,67.45
2023-09-28T03:18:01.458Z,67.43
2023-09-28T03:20:03.527Z,67.43
2023-09-28T03:22:05.418Z,67.09
2023-09-28T03:24:08.486Z,66.85
2023-09-28T03:26:10.338Z,66.86
2023-09-28T03:28:12.092Z,66.62
2023-09-28T03:30:14.905Z,67.00
2023-09-28T03:32:16.616Z,66.86
2023-09-28T03:34:19.629Z,66.70
2023-09-28T03:36:21.308Z,66.56
2023-09-28T03:38:22.940Z,66.56
2023-09-28T03:40:24.859Z,65.96
2023-09-28T03:42:26.482Z,65.66
2023-09-28T03:44:28.128Z,65.46
2023-09-28T03:46:30.005Z,65.71
2023-09-28T03:48:32.036Z,65.43
2023-09-28T03:50:35.011Z,65.23
2023-09-28T03:52:37.186Z,65.12
2023-09-28T03:54:38.942Z,65.14
2023-09-28T03:56:40.570Z,64.96
2023-09-28T03:58:42.367Z,64.79
2023-09-28T04:00:44.240Z,64.54
2023-09-28T04:02:52.183Z,64.46
2023-09-28T04:04:55.746Z,64.05
2023-09-28T04:06:58.750Z,63.63
2023-09-28T04:09:00.412Z,63.87
2023-09-28T04:11:03.371Z,63.78
2023-09-28T04:13:04.990Z,63.36
2023-09-28T04:15:07.656Z,63.20
2023-09-28T04:17:09.474Z,62.71
2023-09-28T04:19:11.165Z,62.36
2023-09-28T04:21:12.918Z,62.14
2023-09-28T04:23:15.915Z,62.14
2023-09-28T04:25:18.818Z,62.21
2023-09-28T04:27:20.405Z,62.14
2023-09-28T04:29:22.088Z,61.77
2023-09-28T04:31:23.673Z,61.79
2023-09-28T04:33:25.310Z,62.03
2023-09-28T04:35:27.099Z,61.62
2023-09-28T04:37:28.882Z,61.31
2023-09-28T04:39:31.874Z,61.17
2023-09-28T04:41:33.530Z,60.92
2023-09-28T04:43:35.218Z,61.35
2023-09-28T04:45:36.874Z,61.01
2023-09-28T04:47:38.665Z,61.55
2023-09-28T04:49:40.346Z,61.45
2023-09-28T04:51:42.046Z,61.12
2023-09-28T04:53:43.663Z,61.09
2023-09-28T04:55:46.604Z,61.15
2023-09-28T04:57:48.369Z,61.10
2023-09-28T04:59:50.249Z,60.67
2023-09-28T05:01:51.986Z,60.56
2023-09-28T05:03:53.837Z,60.51
2023-09-28T05:05:55.639Z,60.47
2023-09-28T05:07:57.333Z,61.01
2023-09-28T05:09:58.908Z,60.43
2023-09-28T05:12:02.274Z,60.68
2023-09-28T05:14:06.146Z,60.50
2023-09-28T05:16:07.849Z,60.26
2023-09-28T05:18:09.542Z,60.36
2023-09-28T05:20:12.207Z,60.48
2023-09-28T05:22:13.909Z,60.31
2023-09-28T05:24:15.529Z,60.13
2023-09-28T05:26:17.310Z,60.30
2023-09-28T05:28:20.315Z,60.38
2023-09-28T05:30:21.990Z,60.42
2023-09-28T05:32:23.710Z,60.67
2023-09-28T05:34:25.507Z,60.35
2023-09-28T05:36:27.433Z,60.58
2023-09-28T05:38:29.112Z,60.86
2023-09-28T05:40:30.925Z,60.73
2023-09-28T05:42:32.620Z,61.04
2023-09-28T05:44:36.030Z,60.89
2023-09-28T05:46:37.686Z,61.12
2023-09-28T05:48:39.358Z,60.59
2023-09-28T05:50:40.934Z,60.50
2023-09-28T05:52:42.534Z,60.71
2023-09-28T05:54:44.273Z,61.11
2023-09-28T05:56:46.057Z,60.64
2023-09-28T05:58:47.755Z,60.75
2023-09-28T06:00:50.943Z,60.87
2023-09-28T06:02:52.602Z,60.53
2023-09-28T06:04:54.341Z,60.86
2023-09-28T06:06:56.003Z,60.71
2023-09-28T06:08:57.828Z,60.76
2023-09-28T06:11:11.924Z,61.18
2023-09-28T06:13:14.438Z,60.40
2023-09-28T06:15:16.076Z,60.79
2023-09-28T06:17:19.153Z,60.51
2023-09-28T06:19:21.038Z,60.42
2023-09-28T06:21:22.667Z,61.13
2023-09-28T06:23:24.462Z,60.78
2023-09-28T06:25:26.254Z,60.90
2023-09-28T06:27:28.162Z,61.04
2023-09-28T06:29:29.761Z,60.74
2023-09-28T06:31:31.656Z,61.04
2023-09-28T06:33:34.692Z,60.84
2023-09-28T06:35:36.367Z,61.29
2023-09-28T06:37:38.178Z,60.79
2023-09-28T06:39:39.801Z,60.38
2023-09-28T06:41:41.371Z,60.99
2023-09-28T06:43:43.363Z,60.63
2023-09-28T06:45:45.270Z,61.65
2023-09-28T06:47:56.960Z,60.79
2023-09-28T06:50:02.745Z,60.79
2023-09-28T06:52:04.783Z,60.64
2023-09-28T06:54:08.094Z,60.06
2023-09-28T06:56:14.509Z,59.35
2023-09-28T06:58:16.809Z,59.34
2023-09-28T07:00:18.660Z,59.13
2023-09-28T07:02:20.505Z,58.91
2023-09-28T07:04:22.110Z,57.89
2023-09-28T07:06:25.460Z,58.37
2023-09-28T07:08:27.208Z,58.62
2023-09-28T07:10:28.837Z,59.33
2023-09-28T07:12:30.815Z,58.75
2023-09-28T07:14:32.542Z,57.38
2023-09-28T07:16:34.167Z,56.77
2023-09-28T07:18:37.147Z,56.58
2023-09-28T07:20:38.785Z,56.51
2023-09-28T07:22:41.821Z,56.65
2023-09-28T07:24:43.518Z,56.53
2023-09-28T07:26:45.305Z,55.29
2023-09-28T07:28:47.052Z,55.22
2023-09-28T07:30:48.858Z,56.48
2023-09-28T07:32:51.188Z,55.87
2023-09-28T07:34:53.089Z,54.51
2023-09-28T07:36:54.853Z,53.17
2023-09-28T07:38:57.966Z,53.40
2023-09-28T07:41:00.117Z,53.92
2023-09-28T07:43:01.966Z,54.53
2023-09-28T07:45:04.316Z,55.86
2023-09-28T07:47:06.038Z,53.51
2023-09-28T07:49:07.652Z,52.83
2023-09-28T07:51:09.278Z,53.24
2023-09-28T07:53:10.882Z,52.56
2023-09-28T07:55:14.177Z,53.52
2023-09-28T07:57:16.123Z,52.62
2023-09-28T07:59:17.846Z,53.10
2023-09-28T08:01:19.725Z,51.72
2023-09-28T08:03:21.598Z,52.01
2023-09-28T08:05:23.434Z,51.25
2023-09-28T08:07:25.333Z,51.63
2023-09-28T08:09:27.048Z,52.26
2023-09-28T08:11:30.158Z,51.75
2023-09-28T08:13:31.810Z,51.64
2023-09-28T08:15:36.657Z,52.05
2023-09-28T08:17:43.227Z,51.49
2023-09-28T08:19:44.888Z,51.14
2023-09-28T08:21:46.807Z,52.40
2023-09-28T08:23:48.566Z,52.37
2023-09-28T08:25:50.226Z,52.03
2023-09-28T08:27:53.318Z,51.41
2023-09-28T08:29:55.292Z,51.34
2023-09-28T08:31:59.644Z,52.08
2023-09-28T08:34:01.656Z,51.56
2023-09-28T08:36:03.659Z,50.25
2023-09-28T08:38:06.054Z,50.77
2023-09-28T08:40:09.123Z,50.89
2023-09-28T08:42:13.336Z,50.62
2023-09-28T08:44:16.636Z,50.61
2023-09-28T08:46:31.693Z,49.95
2023-09-28T08:48:45.587Z,49.45
2023-09-28T08:50:51.950Z,51.10
2023-09-28T08:52:55.302Z,50.62
2023-09-28T08:54:57.510Z,51.64
2023-09-28T08:57:00.143Z,49.94
2023-09-28T08:59:02.934Z,50.75
2023-09-28T09:01:07.853Z,49.95
2023-09-28T09:03:10.756Z,48.92
2023-09-28T09:05:12.610Z,48.72
2023-09-28T09:07:15.138Z,49.48
2023-09-28T09:09:18.985Z,49.05
2023-09-28T09:11:22.171Z,48.62
2023-09-28T09:13:23.849Z,48.29
2023-09-28T09:15:25.793Z,48.45
2023-09-28T09:17:35.098Z,47.97
2023-09-28T09:19:37.438Z,47.53
2023-09-28T09:21:40.874Z,47.49
2023-09-28T09:23:42.846Z,47.70
2023-09-28T09:25:46.616Z,47.38
2023-09-28T09:27:48.426Z,47.04
2023-09-28T09:29:50.059Z,47.00
2023-09-28T09:31:51.702Z,48.22
2023-09-28T09:33:54.727Z,46.45
2023-09-28T09:35:56.427Z,47.06
2023-09-28T09:37:58.191Z,46.48
2023-09-28T09:40:10.032Z,46.26
2023-09-28T09:42:11.923Z,46.03
2023-09-28T09:44:17.784Z,45.91
2023-09-28T09:46:19.575Z,45.52
2023-09-28T09:48:22.913Z,45.12
2023-09-28T09:50:26.417Z,45.25
2023-09-28T09:52:29.676Z,45.41
2023-09-28T09:54:32.557Z,46.47
2023-09-28T09:56:36.374Z,45.43
2023-09-28T09:58:41.508Z,45.39
2023-09-28T10:00:44.244Z,44.25
2023-09-28T10:02:47.803Z,43.39
2023-09-28T10:04:52.769Z,44.15
2023-09-28T10:06:55.881Z,43.25
2023-09-28T10:08:58.053Z,43.04
2023-09-28T10:11:01.823Z,43.08
2023-09-28T10:13:04.078Z,46.80
2023-09-28T10:15:07.279Z,56.18
2023-09-28T10:17:09.170Z,45.86
2023-09-28T10:19:12.524Z,46.21
2023-09-28T10:21:15.172Z,54.88
2023-09-28T10:23:23.173Z,46.84
2023-09-28T10:25:24.837Z,48.56
2023-09-28T10:27:26.796Z,49.14
2023-09-28T10:29:28.491Z,48.63
2023-09-28T10:31:41.623Z,46.27
2023-09-28T10:33:58.078Z,44.62
2023-09-28T10:36:12.446Z,46.40
2023-09-28T10:38:22.370Z,45.63
2023-09-28T10:40:31.296Z,46.74
2023-09-28T10:42:38.902Z,45.68
2023-09-28T10:44:46.623Z,45.40
2023-09-28T10:46:49.352Z,43.36
2023-09-28T10:48:51.140Z,43.94
2023-09-28T10:50:53.061Z,45.00
2023-09-28T10:52:54.775Z,44.13
2023-09-28T10:54:58.291Z,43.42
2023-09-28T10:57:00.049Z,45.67
2023-09-28T10:59:01.710Z,43.59
2023-09-28T11:01:04.175Z,42.18
2023-09-28T11:03:06.100Z,41.46
2023-09-28T11:05:09.640Z,41.77
2023-09-28T11:07:12.092Z,42.94
2023-09-28T11:09:14.325Z,43.28
2023-09-28T11:11:17.349Z,39.63
2023-09-28T11:13:18.968Z,39.52
2023-09-28T11:15:20.629Z,39.63
2023-09-28T11:17:22.722Z,39.34
2023-09-28T11:19:24.765Z,38.08
2023-09-28T11:21:27.068Z,39.82
2023-09-28T11:23:29.348Z,40.04
2023-09-28T11:25:44.889Z,41.51
2023-09-28T11:27:49.596Z,40.22
2023-09-28T11:29:55.144Z,40.04
2023-09-28T11:31:56.922Z,39.64
2023-09-28T11:33:58.903Z,40.40
2023-09-28T11:36:00.729Z,42.02
2023-09-28T11:38:02.968Z,40.67
2023-09-28T11:40:05.860Z,41.47
2023-09-28T11:42:09.953Z,40.03
2023-09-28T11:44:20.101Z,40.25
2023-09-28T11:46:22.873Z,40.91
2023-09-28T11:48:25.842Z,40.20
2023-09-28T11:50:28.959Z,40.41
2023-09-28T11:52:30.640Z,41.42
2023-09-28T11:54:32.351Z,40.93
2023-09-28T11:56:34.567Z,41.04
2023-09-28T11:58:36.602Z,41.83
2023-09-28T12:00:40.062Z,42.84
2023-09-28T12:02:41.766Z,39.86
2023-09-28T12:04:43.600Z,39.61
2023-09-28T12:06:45.701Z,38.98
2023-09-28T12:08:50.600Z,39.01
2023-09-28T12:10:52.953Z,39.10
2023-09-28T12:12:54.591Z,39.83
2023-09-28T12:14:56.122Z,39.12
2023-09-28T12:16:59.474Z,40.90
2023-09-28T12:19:01.231Z,38.20
2023-09-28T12:21:02.946Z,39.77
2023-09-28T12:23:04.837Z,39.32
2023-09-28T12:25:07.708Z,39.49
2023-09-28T12:27:09.479Z,38.14
2023-09-28T12:29:12.017Z,39.67
2023-09-28T12:31:13.833Z,38.68
2023-09-28T12:33:17.016Z,39.09
2023-09-28T12:35:18.702Z,38.29
2023-09-28T12:37:20.349Z,39.61
2023-09-28T12:39:21.985Z,42.38
2023-09-28T12:41:23.733Z,39.21
2023-09-28T12:43:25.349Z,39.78
2023-09-28T12:45:27.064Z,40.30
2023-09-28T12:47:28.946Z,41.42
2023-09-28T12:49:32.213Z,39.44
2023-09-28T12:51:33.915Z,40.12
2023-09-28T12:53:35.697Z,40.85
2023-09-28T12:55:37.849Z,39.41
2023-09-28T12:57:39.556Z,38.88
2023-09-28T12:59:41.469Z,39.35
2023-09-28T13:01:43.385Z,39.71
2023-09-28T13:03:45.174Z,43.14
2023-09-28T13:05:48.428Z,39.54
2023-09-28T13:07:50.185Z,41.29
2023-09-28T13:09:51.809Z,41.00
2023-09-28T13:11:53.476Z,39.43
2023-09-28T13:13:55.774Z,39.98
2023-09-28T13:15:57.739Z,40.82
2023-09-28T13:17:59.560Z,42.00
2023-09-28T13:20:01.274Z,40.68
2023-09-28T13:22:04.380Z,40.12
2023-09-28T13:24:15.949Z,45.32
2023-09-28T13:26:18.980Z,42.91
2023-09-28T13:28:20.677Z,41.80
2023-09-28T13:30:22.714Z,41.75
2023-09-28T13:32:24.362Z,41.72
2023-09-28T13:34:27.053Z,41.05
2023-09-28T13:36:28.746Z,40.69
2023-09-28T13:38:32.095Z,42.60
2023-09-28T13:40:33.891Z,41.33
2023-09-28T13:42:35.536Z,43.71
2023-09-28T13:44:37.662Z,40.26
2023-09-28T13:46:39.439Z,41.24
2023-09-28T13:48:41.174Z,40.86
2023-09-28T13:50:42.909Z,40.84
2023-09-28T13:52:44.713Z,42.22
2023-09-28T13:54:47.802Z,42.06
2023-09-28T13:56:49.644Z,40.08
2023-09-28T13:58:51.415Z,42.67
2023-09-28T14:00:53.317Z,41.15
2023-09-28T14:02:55.215Z,41.84
2023-09-28T14:04:57.294Z,40.86
2023-09-28T14:06:59.122Z,40.31
2023-09-28T14:09:00.789Z,39.73
2023-09-28T14:11:09.379Z,40.20
2023-09-28T14:13:10.980Z,40.72
2023-09-28T14:15:12.688Z,40.58
2023-09-28T14:17:19.134Z,40.79
2023-09-28T14:19:26.674Z,42.40
2023-09-28T14:21:28.324Z,42.20
2023-09-28T14:23:29.989Z,40.58
2023-09-28T14:25:31.878Z,39.78
2023-09-28T14:27:34.860Z,39.48
2023-09-28T14:29:36.573Z,39.91
2023-09-28T14:31:38.454Z,39.31
2023-09-28T14:33:40.140Z,39.27
2023-09-28T14:35:41.912Z,41.14
2023-09-28T14:37:43.712Z,41.21
2023-09-28T14:39:45.336Z,40.36
2023-09-28T14:41:47.281Z,41.06
2023-09-28T14:43:51.720Z,41.97
2023-09-28T14:45:53.381Z,42.10
2023-09-28T14:47:55.259Z,39.54
2023-09-28T14:49:57.196Z,40.80
2023-09-28T14:51:58.832Z,40.88
2023-09-28T14:54:00.493Z,39.86
2023-09-28T14:56:02.286Z,40.89
2023-09-28T14:58:04.292Z,41.17
2023-09-28T15:00:08.378Z,40.26
2023-09-28T15:02:10.126Z,39.36
2023-09-28T15:04:12.009Z,42.43
2023-09-28T15:06:14.006Z,39.10
2023-09-28T15:08:15.765Z,40.66
2023-09-28T15:10:17.441Z,39.39
2023-09-28T15:12:19.101Z,40.58
2023-09-28T15:14:20.861Z,39.22
2023-09-28T15:16:23.923Z,40.03
2023-09-28T15:18:25.761Z,40.85
2023-09-28T15:20:27.656Z,42.41
2023-09-28T15:22:29.363Z,40.96
2023-09-28T15:24:30.984Z,40.24
2023-09-28T15:26:33.122Z,40.90
2023-09-28T15:28:35.208Z,41.50
2023-09-28T15:30:37.385Z,40.75
2023-09-28T15:32:41.663Z,40.39
2023-09-28T15:34:43.957Z,39.91
2023-09-28T15:36:46.073Z,39.39
2023-09-28T15:38:47.773Z,39.95
2023-09-28T15:40:49.522Z,40.20
2023-09-28T15:42:51.273Z,39.36
2023-09-28T15:44:53.254Z,39.36
2023-09-28T15:46:56.405Z,39.63
2023-09-28T15:49:00.809Z,40.94
2023-09-28T15:51:02.582Z,40.61
2023-09-28T15:53:05.409Z,40.00
2023-09-28T15:55:07.871Z,40.85
2023-09-28T15:57:09.704Z,40.71
2023-09-28T15:59:11.460Z,41.45
2023-09-28T16:01:13.366Z,40.80
2023-09-28T16:03:15.097Z,41.45
2023-09-28T16:05:18.313Z,41.88
2023-09-28T16:07:20.015Z,40.66
2023-09-28T16:09:21.894Z,40.84
2023-09-28T16:11:23.707Z,40.69
2023-09-28T16:13:25.456Z,40.63
2023-09-28T16:15:27.215Z,41.00
2023-09-28T16:17:28.896Z,41.09
2023-09-28T16:19:30.694Z,41.42
2023-09-28T16:21:33.983Z,41.71
2023-09-28T16:23:35.696Z,41.66
2023-09-28T16:25:37.511Z,41.45
2023-09-28T16:27:39.284Z,41.45
2023-09-28T16:29:41.108Z,40.93
2023-09-28T16:31:42.929Z,40.89
2023-09-28T16:33:44.688Z,41.22
2023-09-28T16:35:46.542Z,41.06
2023-09-28T16:37:49.550Z,41.29
2023-09-28T16:39:51.232Z,41.10
2023-09-28T16:41:52.905Z,41.01
2023-09-28T16:43:54.567Z,40.63
2023-09-28T16:45:56.407Z,40.68
2023-09-28T16:47:58.482Z,40.93
2023-09-28T16:50:00.199Z,41.42
2023-09-28T16:52:01.859Z,40.68
2023-09-28T16:54:05.312Z,41.31
2023-09-28T16:56:06.982Z,41.53
2023-09-28T16:58:09.224Z,41.73
2023-09-28T17:00:11.605Z,42.36
2023-09-28T17:02:13.535Z,42.99
2023-09-28T17:04:15.398Z,43.42
2023-09-28T17:06:17.175Z,43.97
2023-09-28T17:08:18.859Z,44.46
2023-09-28T17:10:22.071Z,45.54
2023-09-28T17:12:37.241Z,45.45
2023-09-28T17:14:45.019Z,45.72
2023-09-28T17:16:48.875Z,45.50
2023-09-28T17:18:50.524Z,45.82
2023-09-28T17:20:52.536Z,46.41
2023-09-28T17:22:54.238Z,46.66
2023-09-28T17:24:56.057Z,47.10
2023-09-28T17:26:59.045Z,47.10
2023-09-28T17:29:00.765Z,47.67
2023-09-28T17:31:02.871Z,47.29
2023-09-28T17:33:05.299Z,47.67
2023-09-28T17:35:08.043Z,47.59
2023-09-28T17:37:10.117Z,47.80
2023-09-28T17:39:11.916Z,47.82
2023-09-28T17:41:13.805Z,48.09
2023-09-28T17:43:17.089Z,48.37
2023-09-28T17:45:18.961Z,48.04
2023-09-28T17:47:20.673Z,47.98
2023-09-28T17:49:22.369Z,47.91
2023-09-28T17:51:24.053Z,48.19
2023-09-28T17:53:26.126Z,48.20
2023-09-28T17:55:27.961Z,48.25
2023-09-28T17:57:29.861Z,48.41
2023-09-28T17:59:35.398Z,48.78
2023-09-28T18:01:37.216Z,48.60
2023-09-28T18:03:39.383Z,49.18
2023-09-28T18:05:41.324Z,48.46
2023-09-28T18:07:43.366Z,48.53
2023-09-28T18:09:46.468Z,49.15
2023-09-28T18:11:48.162Z,49.09
2023-09-28T18:13:50.709Z,49.33
2023-09-28T18:15:53.834Z,48.79
2023-09-28T18:17:56.688Z,49.13
2023-09-28T18:19:58.384Z,49.53
2023-09-28T18:22:00.451Z,49.23
2023-09-28T18:24:02.312Z,50.89
2023-09-28T18:26:04.260Z,50.51
2023-09-28T18:28:06.768Z,50.50
2023-09-28T18:30:09.233Z,50.67
2023-09-28T18:32:12.610Z,49.75
2023-09-28T18:34:14.690Z,50.13
2023-09-28T18:36:17.125Z,50.36
2023-09-28T18:38:18.848Z,49.06
2023-09-28T18:40:20.681Z,49.85
2023-09-28T18:42:22.550Z,49.83
2023-09-28T18:44:24.275Z,49.45
2023-09-28T18:46:26.257Z,50.60
2023-09-28T18:48:29.450Z,49.78
2023-09-28T18:50:31.189Z,50.20
2023-09-28T18:52:32.998Z,51.23
2023-09-28T18:54:35.093Z,51.02
2023-09-28T18:56:36.691Z,51.39
2023-09-28T18:58:39.026Z,50.28
2023-09-28T19:00:40.836Z,50.80
2023-09-28T19:02:42.776Z,50.97
2023-09-28T19:04:46.489Z,50.64
2023-09-28T19:06:48.496Z,50.90
2023-09-28T19:08:50.893Z,50.98
2023-09-28T19:10:58.006Z,50.31
2023-09-28T19:12:59.962Z,50.38
2023-09-28T19:15:03.952Z,49.77
2023-09-28T19:17:05.654Z,51.16
2023-09-28T19:19:07.469Z,51.55
2023-09-28T19:21:11.081Z,52.02
2023-09-28T19:23:13.216Z,51.25
2023-09-28T19:25:15.485Z,51.56
2023-09-28T19:27:31.952Z,51.13
2023-09-28T19:29:37.930Z,51.90
2023-09-28T19:31:40.209Z,52.36
2023-09-28T19:33:42.521Z,52.50
2023-09-28T19:35:44.592Z,51.92
2023-09-28T19:37:47.790Z,51.42
2023-09-28T19:39:49.672Z,51.78
2023-09-28T19:41:52.020Z,51.53
2023-09-28T19:43:54.569Z,52.15
2023-09-28T19:45:56.689Z,51.41
2023-09-28T19:48:01.905Z,51.35
2023-09-28T19:50:05.082Z,52.48
2023-09-28T19:52:07.788Z,52.01
2023-09-28T19:54:11.230Z,51.82
2023-09-28T19:56:20.679Z,52.06
2023-09-28T19:58:24.072Z,52.17
2023-09-28T20:00:28.377Z,51.83
2023-09-28T20:02:30.087Z,51.80
2023-09-28T20:04:31.933Z,51.70
2023-09-28T20:06:33.809Z,51.39
2023-09-28T20:08:35.572Z,52.23
2023-09-28T20:10:39.145Z,52.21
2023-09-28T20:12:41.535Z,51.58
2023-09-28T20:14:43.823Z,51.74
2023-09-28T20:16:45.721Z,51.76
2023-09-28T20:18:47.578Z,51.38
2023-09-28T20:20:49.427Z,51.10
2023-09-28T20:22:57.268Z,50.60
2023-09-28T20:24:59.879Z,50.70
2023-09-28T20:27:03.060Z,51.15
2023-09-28T20:29:05.125Z,51.07
2023-09-28T20:31:07.100Z,51.42
2023-09-28T20:33:11.239Z,51.70
2023-09-28T20:35:13.156Z,52.73
2023-09-28T20:37:16.303Z,52.56
2023-09-28T20:39:17.959Z,52.92
2023-09-28T20:41:19.523Z,52.99
2023-09-28T20:43:22.688Z,53.36
2023-09-28T20:45:24.469Z,53.16
2023-09-28T20:47:26.507Z,52.92
2023-09-28T20:49:28.470Z,52.79
2023-09-28T20:51:31.858Z,52.18
2023-09-28T20:53:33.642Z,52.22
2023-09-28T20:55:35.388Z,52.40
2023-09-28T20:57:37.264Z,52.15
2023-09-28T20:59:40.755Z,53.29
2023-09-28T21:01:42.755Z,53.54
2023-09-28T21:03:45.585Z,52.14
2023-09-28T21:05:47.695Z,53.41
2023-09-28T21:07:50.801Z,52.72
2023-09-28T21:09:53.000Z,52.78
2023-09-28T21:11:54.714Z,52.42
2023-09-28T21:13:56.693Z,52.67
2023-09-28T21:16:01.436Z,52.99
2023-09-28T21:18:04.881Z,52.90
2023-09-28T21:20:07.602Z,52.97
2023-09-28T21:22:09.489Z,52.98
2023-09-28T21:24:11.368Z,53.11
2023-09-28T21:26:13.054Z,53.15
2023-09-28T21:28:14.938Z,53.16
2023-09-28T21:30:17.074Z,53.59
2023-09-28T21:32:20.151Z,53.45
2023-09-28T21:34:22.280Z,53.82
2023-09-28T21:36:24.210Z,53.28
2023-09-28T21:38:26.162Z,52.98
2023-09-28T21:40:28.454Z,52.21
2023-09-28T21:42:30.378Z,52.28
2023-09-28T21:44:32.110Z,52.75
2023-09-28T21:46:33.987Z,53.55
2023-09-28T21:48:39.254Z,53.49
2023-09-28T21:50:41.001Z,53.67
2023-09-28T21:52:42.795Z,53.65
2023-09-28T21:54:44.466Z,54.30
2023-09-28T21:56:46.333Z,53.93
2023-09-28T21:58:48.431Z,53.98
2023-09-28T22:00:50.229Z,54.71
2023-09-28T22:02:51.930Z,54.25
2023-09-28T22:04:55.047Z,54.10
2023-09-28T22:06:58.073Z,54.20
2023-09-28T22:08:59.854Z,54.88
2023-09-28T22:11:01.672Z,54.22
2023-09-28T22:13:03.393Z,54.81
2023-09-28T22:15:06.359Z,54.54
2023-09-28T22:17:08.293Z,55.47
2023-09-28T22:19:09.940Z,55.18
2023-09-28T22:21:12.993Z,54.55
2023-09-28T22:23:14.748Z,54.70
2023-09-28T22:25:16.846Z,54.94
2023-09-28T22:27:18.823Z,55.01
2023-09-28T22:29:20.583Z,55.12
2023-09-28T22:31:22.398Z,55.30
2023-09-28T22:33:24.214Z,55.29
2023-09-28T22:35:25.953Z,55.50
2023-09-28T22:37:33.373Z,55.44
2023-09-28T22:39:35.020Z,55.42
2023-09-28T22:41:37.722Z,55.33
2023-09-28T22:43:39.399Z,56.31
2023-09-28T22:45:41.241Z,56.16
2023-09-28T22:47:46.371Z,55.87
2023-09-28T22:49:48.033Z,55.13
2023-09-28T22:51:49.774Z,54.47
2023-09-28T22:53:53.289Z,54.61
2023-09-28T22:55:54.999Z,54.87
2023-09-28T22:57:56.650Z,54.65
2023-09-28T22:59:58.398Z,54.89
2023-09-28T23:02:00.311Z,54.39
2023-09-28T23:04:02.544Z,55.29
2023-09-28T23:06:06.991Z,55.26
2023-09-28T23:08:08.978Z,55.27
2023-09-28T23:10:12.122Z,56.12
2023-09-28T23:12:13.978Z,55.61
2023-09-28T23:14:15.777Z,56.50
2023-09-28T23:16:17.579Z,56.00
2023-09-28T23:18:20.077Z,56.48
2023-09-28T23:20:21.834Z,56.06
2023-09-28T23:22:23.498Z,56.27
2023-09-28T23:24:25.259Z,56.50
2023-09-28T23:26:28.491Z,56.11
2023-09-28T23:28:30.441Z,56.45
2023-09-28T23:30:32.102Z,56.69
2023-09-28T23:32:33.910Z,56.51
2023-09-28T23:34:35.646Z,56.94
2023-09-28T23:36:37.603Z,56.69
2023-09-28T23:38:39.336Z,56.85
2023-09-28T23:40:41.078Z,56.99
2023-09-28T23:42:44.887Z,56.71
2023-09-28T23:44:46.626Z,56.98
2023-09-28T23:46:48.249Z,57.20
2023-09-28T23:48:49.913Z,57.42
2023-09-28T23:50:51.587Z,57.19
2023-09-28T23:52:54.552Z,57.43
2023-09-28T23:54:56.143Z,57.11
2023-09-28T23:56:57.859Z,57.92
2023-09-28T23:59:00.884Z,58.63
